sensor_id;sensor_type;location;lat;lon;timestamp;P1;durP1;ratioP1;P2;durP2;ratioP2
41623;SDS011;27319;50.306;18.926;2023-06-14T00:01:51;13.85;;;7.90;;
41623;SDS011;27319;50.306;18.926;2023-06-14T00:04:52;14.52;;;8.50;;
41623;SDS011;27319;50.306;18.926;2023-06-14T00:07:53;12.70;;;8.85;;
41623;SDS011;27319;50.306;18.926;2023-06-14T00:11:54;13.02;;;8.57;;
41623;SDS011;27319;50.306;18.926;2023-06-14T00:14:55;15.20;;;8.38;;
41623;SDS011;27319;50.306;18.926;2023-06-14T00:17:56;10.68;;;8.80;;
41623;SDS011;27319;50.306;18.926;2023-06-14T00:21:00;14.15;;;8.98;;
41623;SDS011;27319;50.306;18.926;2023-06-14T00:24:04;18.40;;;10.32;;
41623;SDS011;27319;50.306;18.926;2023-06-14T00:28:05;16.45;;;9.02;;
41623;SDS011;27319;50.306;18.926;2023-06-14T00:31:06;13.48;;;8.05;;
41623;SDS011;27319;50.306;18.926;2023-06-14T00:34:07;13.68;;;9.15;;
41623;SDS011;27319;50.306;18.926;2023-06-14T00:37:09;16.52;;;9.20;;
41623;SDS011;27319;50.306;18.926;2023-06-14T00:40:10;16.92;;;9.43;;
41623;SDS011;27319;50.306;18.926;2023-06-14T00:43:11;13.98;;;7.82;;
41623;SDS011;27319;50.306;18.926;2023-06-14T00:46:12;15.30;;;8.60;;
41623;SDS011;27319;50.306;18.926;2023-06-14T00:50:13;14.00;;;8.63;;
41623;SDS011;27319;50.306;18.926;2023-06-14T00:53:14;13.77;;;8.88;;
41623;SDS011;27319;50.306;18.926;2023-06-14T00:56:18;11.70;;;8.15;;
41623;SDS011;27319;50.306;18.926;2023-06-14T00:59:20;10.18;;;7.85;;
41623;SDS011;27319;50.306;18.926;2023-06-14T01:02:22;11.30;;;7.45;;
41623;SDS011;27319;50.306;18.926;2023-06-14T01:05:22;9.30;;;7.22;;
41623;SDS011;27319;50.306;18.926;2023-06-14T01:08:24;11.80;;;6.88;;
41623;SDS011;27319;50.306;18.926;2023-06-14T01:11:33;10.35;;;7.60;;
41623;SDS011;27319;50.306;18.926;2023-06-14T01:14:47;11.55;;;7.22;;
41623;SDS011;27319;50.306;18.926;2023-06-14T01:18:48;13.23;;;7.07;;
41623;SDS011;27319;50.306;18.926;2023-06-14T01:21:52;8.98;;;6.68;;
41623;SDS011;27319;50.306;18.926;2023-06-14T01:24:53;10.32;;;8.10;;
41623;SDS011;27319;50.306;18.926;2023-06-14T01:27:57;10.10;;;7.05;;
41623;SDS011;27319;50.306;18.926;2023-06-14T01:31:02;8.43;;;6.47;;
41623;SDS011;27319;50.306;18.926;2023-06-14T01:35:03;9.35;;;6.55;;
41623;SDS011;27319;50.306;18.926;2023-06-14T01:39:00;9.38;;;6.82;;
41623;SDS011;27319;50.306;18.926;2023-06-14T01:42:02;11.98;;;6.65;;
41623;SDS011;27319;50.306;18.926;2023-06-14T01:45:04;12.23;;;7.45;;
41623;SDS011;27319;50.306;18.926;2023-06-14T01:48:07;12.30;;;7.45;;
41623;SDS011;27319;50.306;18.926;2023-06-14T01:51:08;10.40;;;7.70;;
41623;SDS011;27319;50.306;18.926;2023-06-14T01:54:08;8.48;;;6.05;;
41623;SDS011;27319;50.306;18.926;2023-06-14T01:57:10;8.25;;;7.00;;
41623;SDS011;27319;50.306;18.926;2023-06-14T02:00:11;9.20;;;6.90;;
41623;SDS011;27319;50.306;18.926;2023-06-14T02:04:11;12.13;;;6.70;;
41623;SDS011;27319;50.306;18.926;2023-06-14T02:07:12;8.80;;;6.55;;
41623;SDS011;27319;50.306;18.926;2023-06-14T02:10:14;10.70;;;7.72;;
41623;SDS011;27319;50.306;18.926;2023-06-14T02:13:15;8.43;;;6.43;;
41623;SDS011;27319;50.306;18.926;2023-06-14T02:16:16;9.80;;;6.35;;
41623;SDS011;27319;50.306;18.926;2023-06-14T02:19:18;11.35;;;7.43;;
41623;SDS011;27319;50.306;18.926;2023-06-14T02:22:20;10.32;;;6.18;;
41623;SDS011;27319;50.306;18.926;2023-06-14T02:25:29;11.10;;;6.80;;
41623;SDS011;27319;50.306;18.926;2023-06-14T02:28:30;8.45;;;6.28;;
41623;SDS011;27319;50.306;18.926;2023-06-14T02:31:31;10.10;;;6.55;;
41623;SDS011;27319;50.306;18.926;2023-06-14T02:34:33;8.55;;;6.70;;
41623;SDS011;27319;50.306;18.926;2023-06-14T02:37:35;9.90;;;7.70;;
41623;SDS011;27319;50.306;18.926;2023-06-14T02:40:36;8.25;;;6.22;;
41623;SDS011;27319;50.306;18.926;2023-06-14T02:43:37;12.05;;;8.32;;
41623;SDS011;27319;50.306;18.926;2023-06-14T02:46:38;10.05;;;6.90;;
41623;SDS011;27319;50.306;18.926;2023-06-14T02:49:39;10.40;;;7.53;;
41623;SDS011;27319;50.306;18.926;2023-06-14T02:52:40;9.07;;;6.80;;
41623;SDS011;27319;50.306;18.926;2023-06-14T02:55:42;10.38;;;7.25;;
41623;SDS011;27319;50.306;18.926;2023-06-14T02:58:43;9.18;;;6.68;;
41623;SDS011;27319;50.306;18.926;2023-06-14T03:02:43;8.25;;;6.30;;
41623;SDS011;27319;50.306;18.926;2023-06-14T03:05:45;10.32;;;6.88;;
41623;SDS011;27319;50.306;18.926;2023-06-14T03:08:49;11.10;;;6.60;;
41623;SDS011;27319;50.306;18.926;2023-06-14T03:11:50;10.25;;;7.40;;
41623;SDS011;27319;50.306;18.926;2023-06-14T03:14:51;12.55;;;7.38;;
41623;SDS011;27319;50.306;18.926;2023-06-14T03:17:53;9.48;;;7.22;;
41623;SDS011;27319;50.306;18.926;2023-06-14T03:21:54;10.18;;;7.90;;
41623;SDS011;27319;50.306;18.926;2023-06-14T03:25:55;9.50;;;7.28;;
41623;SDS011;27319;50.306;18.926;2023-06-14T03:29:55;9.90;;;7.80;;
41623;SDS011;27319;50.306;18.926;2023-06-14T03:33:56;14.55;;;8.52;;
41623;SDS011;27319;50.306;18.926;2023-06-14T03:37:57;13.80;;;8.18;;
41623;SDS011;27319;50.306;18.926;2023-06-14T03:41:58;14.07;;;8.48;;
41623;SDS011;27319;50.306;18.926;2023-06-14T03:44:58;14.00;;;9.98;;
41623;SDS011;27319;50.306;18.926;2023-06-14T03:47:59;11.02;;;8.23;;
41623;SDS011;27319;50.306;18.926;2023-06-14T03:51:00;11.27;;;8.45;;
41623;SDS011;27319;50.306;18.926;2023-06-14T03:55:01;13.57;;;9.00;;
41623;SDS011;27319;50.306;18.926;2023-06-14T03:58:03;13.98;;;8.68;;
41623;SDS011;27319;50.306;18.926;2023-06-14T04:01:04;13.88;;;9.57;;
41623;SDS011;27319;50.306;18.926;2023-06-14T04:05:05;13.70;;;10.15;;
41623;SDS011;27319;50.306;18.926;2023-06-14T04:09:06;17.80;;;10.15;;
41623;SDS011;27319;50.306;18.926;2023-06-14T04:12:07;13.57;;;9.75;;
41623;SDS011;27319;50.306;18.926;2023-06-14T04:15:12;17.02;;;10.07;;
41623;SDS011;27319;50.306;18.926;2023-06-14T04:18:14;17.13;;;10.18;;
41623;SDS011;27319;50.306;18.926;2023-06-14T04:21:15;18.02;;;11.18;;
41623;SDS011;27319;50.306;18.926;2023-06-14T04:24:15;18.55;;;11.50;;
41623;SDS011;27319;50.306;18.926;2023-06-14T04:28:19;17.52;;;10.02;;
41623;SDS011;27319;50.306;18.926;2023-06-14T04:32:23;15.73;;;10.10;;
41623;SDS011;27319;50.306;18.926;2023-06-14T04:35:26;21.30;;;11.52;;
41623;SDS011;27319;50.306;18.926;2023-06-14T04:38:29;18.73;;;11.60;;
41623;SDS011;27319;50.306;18.926;2023-06-14T04:42:30;19.75;;;12.07;;
41623;SDS011;27319;50.306;18.926;2023-06-14T04:45:31;19.02;;;11.75;;
41623;SDS011;27319;50.306;18.926;2023-06-14T04:48:32;20.25;;;12.40;;
41623;SDS011;27319;50.306;18.926;2023-06-14T04:51:33;15.75;;;10.50;;
41623;SDS011;27319;50.306;18.926;2023-06-14T04:54:36;15.35;;;10.63;;
41623;SDS011;27319;50.306;18.926;2023-06-14T04:57:42;25.27;;;12.88;;
41623;SDS011;27319;50.306;18.926;2023-06-14T05:00:43;20.05;;;13.40;;
41623;SDS011;27319;50.306;18.926;2023-06-14T05:04:44;20.73;;;13.98;;
41623;SDS011;27319;50.306;18.926;2023-06-14T05:08:44;23.00;;;14.75;;
41623;SDS011;27319;50.306;18.926;2023-06-14T05:12:45;20.38;;;13.52;;
41623;SDS011;27319;50.306;18.926;2023-06-14T05:16:46;20.73;;;14.57;;
41623;SDS011;27319;50.306;18.926;2023-06-14T05:19:48;21.60;;;13.18;;
41623;SDS011;27319;50.306;18.926;2023-06-14T05:22:53;16.52;;;12.50;;
41623;SDS011;27319;50.306;18.926;2023-06-14T05:25:54;18.95;;;13.25;;
41623;SDS011;27319;50.306;18.926;2023-06-14T05:28:56;19.02;;;13.18;;
41623;SDS011;27319;50.306;18.926;2023-06-14T05:31:57;21.90;;;13.02;;
41623;SDS011;27319;50.306;18.926;2023-06-14T05:34:58;21.20;;;14.10;;
41623;SDS011;27319;50.306;18.926;2023-06-14T05:37:59;18.65;;;12.00;;
41623;SDS011;27319;50.306;18.926;2023-06-14T05:41:00;19.35;;;13.30;;
41623;SDS011;27319;50.306;18.926;2023-06-14T05:44:01;20.27;;;13.25;;
41623;SDS011;27319;50.306;18.926;2023-06-14T05:47:02;18.00;;;13.00;;
41623;SDS011;27319;50.306;18.926;2023-06-14T05:51:03;20.00;;;12.90;;
41623;SDS011;27319;50.306;18.926;2023-06-14T05:55:04;30.80;;;11.30;;
41623;SDS011;27319;50.306;18.926;2023-06-14T05:59:05;26.40;;;11.95;;
41623;SDS011;27319;50.306;18.926;2023-06-14T06:02:06;43.65;;;12.57;;
41623;SDS011;27319;50.306;18.926;2023-06-14T06:05:07;114.22;;;18.50;;
41623;SDS011;27319;50.306;18.926;2023-06-14T06:08:31;22.45;;;10.60;;
41623;SDS011;27319;50.306;18.926;2023-06-14T06:11:33;83.65;;;20.02;;
41623;SDS011;27319;50.306;18.926;2023-06-14T06:15:33;63.58;;;14.73;;
41623;SDS011;27319;50.306;18.926;2023-06-14T06:18:34;121.72;;;18.80;;
41623;SDS011;27319;50.306;18.926;2023-06-14T06:22:35;110.28;;;15.00;;
41623;SDS011;27319;50.306;18.926;2023-06-14T06:26:36;25.63;;;10.32;;
41623;SDS011;27319;50.306;18.926;2023-06-14T06:30:37;26.52;;;9.50;;
41623;SDS011;27319;50.306;18.926;2023-06-14T06:34:37;70.57;;;14.05;;
41623;SDS011;27319;50.306;18.926;2023-06-14T06:38:38;27.83;;;12.07;;
41623;SDS011;27319;50.306;18.926;2023-06-14T06:41:39;17.40;;;11.00;;
41623;SDS011;27319;50.306;18.926;2023-06-14T06:45:40;13.73;;;10.27;;
41623;SDS011;27319;50.306;18.926;2023-06-14T06:49:41;15.15;;;10.55;;
41623;SDS011;27319;50.306;18.926;2023-06-14T06:53:42;39.53;;;10.90;;
41623;SDS011;27319;50.306;18.926;2023-06-14T06:57:42;40.87;;;14.40;;
